Willow Run, Michigan
Current Conditions -  °F | °C
As of 10:53 PM on Sunday 23 Nov 2014 (Local Time) from KYIP Reporting Station
Heavy Rain Heavy Rain  
Wind Chill: 53°   Ceiling: 600
Heat Index: 53°   Visibility: 4mi
Dew Point: 48°   Wind: 16mph
Humidity: 83%   Direction: 120°ESE
Pressure: 29.29"   Gusts: 23mph
Location:  42.272°N, 83.5839°W
Report Text: KYIP 240353Z AUTO 12014G20KT 4SM +RA OVC006 12/09 A2929 RMK AO2 CIG 004V010 PRESFR SLP915 P0012 T01170089 TSNO
Loading
Personal Weather Stations






























Interactive Weather Map New forecast layout! Learn more

10-Day Weather Forecast

Advertisements
Track Severe Weather on mobile